Time;durP1;ratioP1;P1;durP2;ratioP2;P2;SDS_P1;SDS_P2;PMS_P1;PMS_P2;Temp;Humidity;BMP_temperature;BMP_pressure;BME280_temperature;BME280_humidity;BME280_pressure;Samples;Min_cycle;Max_cycle;Signal;HPM_P1;HPM_P2
2022/06/30 00:00:52;;;;;;;;;;;;;;;18.79;100.00;101153.03;2612553;36;19947;-57
2022/06/30 00:03:20;;;;;;;;;;;;;;;18.80;100.00;101143.84;2612172;36;19980;-56
2022/06/30 00:05:48;;;;;;;;;;;;;;;18.76;100.00;101137.06;2613247;36;20041;-59
2022/06/30 00:08:16;;;;;;;;;;;;;;;18.64;100.00;101139.38;2613270;36;20442;-57
2022/06/30 00:10:44;;;;;;;;;;;;;;;18.53;100.00;101132.44;2608903;36;19979;-55
2022/06/30 00:13:15;;;;;;;;;;;;;;;18.52;100.00;101133.50;2613647;36;19954;-57
2022/06/30 00:15:43;;;;;;;;;;;;;;;18.50;100.00;101132.81;2613596;31;19954;-58
2022/06/30 00:18:11;;;;;;;;;;;;;;;18.39;100.00;101130.53;2610526;36;20018;-58
2022/06/30 00:20:39;;;;;;;;;;;;;;;18.21;100.00;101131.66;2612246;31;19950;-58
2022/06/30 00:23:07;;;;;;;;;;;;;;;18.11;100.00;101124.72;2613064;36;20719;-58
2022/06/30 00:25:35;;;;;;;;;;;;;;;18.13;100.00;101126.25;2613518;36;19946;-58
2022/06/30 00:28:03;;;;;;;;;;;;;;;18.08;100.00;101123.22;2613008;36;19986;-57
2022/06/30 00:30:34;;;;;;;;;;;;;;;18.06;100.00;101125.25;2610767;31;19950;-59
2022/06/30 00:33:02;;;;;;;;;;;;;;;18.02;100.00;101113.03;2614307;36;19946;-58
2022/06/30 00:35:30;;;;;;;;;;;;;;;17.99;100.00;101108.81;2614866;36;20507;-58
2022/06/30 00:38:01;;;;;;;;;;;;;;;17.90;100.00;101119.91;2614529;47;20479;-53
2022/06/30 00:40:29;;;;;;;;;;;;;;;17.89;100.00;101110.88;2613099;36;19951;-57
2022/06/30 00:42:57;;;;;;;;;;;;;;;17.85;100.00;101104.91;2613474;36;19963;-59
2022/06/30 00:45:25;;;;;;;;;;;;;;;17.78;100.00;101106.66;2613361;36;19957;-58
2022/06/30 00:47:56;;;;;;;;;;;;;;;17.74;100.00;101102.63;2614619;31;19950;-58
2022/06/30 00:50:25;;;;;;;;;;;;;;;17.69;100.00;101103.13;2614233;36;19958;-59
2022/06/30 00:52:54;;;;;;;;;;;;;;;17.78;100.00;101097.66;2613565;36;19950;-58
2022/06/30 00:55:22;;;;;;;;;;;;;;;17.78;100.00;101098.47;2613500;36;19958;-58
2022/06/30 00:57:51;;;;;;;;;;;;;;;17.72;100.00;101101.09;2613134;36;20534;-57
2022/06/30 01:00:19;;;;;;;;;;;;;;;17.77;100.00;101094.09;2613779;36;19954;-58
2022/06/30 01:02:47;;;;;;;;;;;;;;;17.69;100.00;101102.28;2613833;36;19986;-57
2022/06/30 01:05:18;;;;;;;;;;;;;;;17.67;100.00;101094.28;2613343;36;19951;-57
2022/06/30 01:07:46;;;;;;;;;;;;;;;17.60;100.00;101089.75;2613572;31;19958;-57
2022/06/30 01:12:55;;;;;;;;;;;;;;;17.50;100.00;101095.38;2612395;36;19958;-58
2022/06/30 01:15:24;;;;;;;;;;;;;;;17.48;100.00;101087.41;2612287;36;20408;-56
2022/06/30 01:17:53;;;;;;;;;;;;;;;17.40;100.00;101092.88;2613968;36;19981;-57
2022/06/30 01:20:27;;;;;;;;;;;;;;;17.36;100.00;101087.94;2613166;36;19981;-57
2022/06/30 01:22:58;;;;;;;;;;;;;;;17.31;100.00;101078.47;2613864;31;19951;-58
2022/06/30 01:25:27;;;;;;;;;;;;;;;17.34;100.00;101078.09;2614101;36;19950;-58
2022/06/30 01:27:55;;;;;;;;;;;;;;;17.27;100.00;101076.25;2614022;36;19947;-58
2022/06/30 01:30:24;;;;;;;;;;;;;;;17.23;100.00;101069.47;2610639;36;19939;-58
2022/06/30 01:32:52;;;;;;;;;;;;;;;17.15;100.00;101084.78;2613046;36;19969;-57
2022/06/30 01:35:20;;;;;;;;;;;;;;;17.09;100.00;101085.50;2613077;36;19958;-57
2022/06/30 01:37:50;;;;;;;;;;;;;;;17.04;100.00;101098.75;2613034;36;19947;-57
2022/06/30 01:40:21;;;;;;;;;;;;;;;17.02;100.00;101095.38;2612707;31;19951;-56
2022/06/30 01:42:50;;;;;;;;;;;;;;;17.06;100.00;101079.53;2614433;36;20366;-55
2022/06/30 01:45:18;;;;;;;;;;;;;;;17.08;100.00;101085.66;2612230;36;20424;-58
2022/06/30 01:47:47;;;;;;;;;;;;;;;17.07;100.00;101089.41;2612932;36;19946;-58
2022/06/30 01:50:16;;;;;;;;;;;;;;;17.05;100.00;101081.41;2612669;36;20763;-58
2022/06/30 01:52:44;;;;;;;;;;;;;;;17.05;100.00;101078.69;2612005;36;19951;-58
2022/06/30 01:55:13;;;;;;;;;;;;;;;17.05;100.00;101089.56;2613520;36;20336;-58
2022/06/30 01:57:44;;;;;;;;;;;;;;;17.23;100.00;101091.22;2612833;36;20522;-56
2022/06/30 02:00:14;;;;;;;;;;;;;;;17.30;100.00;101076.75;2612925;36;19950;-57
2022/06/30 02:02:43;;;;;;;;;;;;;;;17.32;100.00;101095.63;2612984;36;19950;-56
2022/06/30 02:05:11;;;;;;;;;;;;;;;17.35;100.00;101087.09;2613629;36;19950;-57
2022/06/30 02:07:40;;;;;;;;;;;;;;;17.41;100.00;101078.22;2610264;36;19985;-57
2022/06/30 02:10:09;;;;;;;;;;;;;;;17.47;100.00;101082.97;2610074;36;20376;-57
2022/06/30 02:12:51;;;;;;;;;;;;;;;17.47;100.00;101074.81;2610656;31;19947;-59
2022/06/30 02:15:23;;;;;;;;;;;;;;;17.50;100.00;101073.59;2611984;36;19987;-58
2022/06/30 02:17:53;;;;;;;;;;;;;;;17.55;100.00;101073.06;2613224;36;19969;-58
2022/06/30 02:20:23;;;;;;;;;;;;;;;17.56;100.00;101072.06;2611467;36;19977;-58
2022/06/30 02:22:53;;;;;;;;;;;;;;;17.68;100.00;101078.78;2613412;36;20038;-57
2022/06/30 02:25:24;;;;;;;;;;;;;;;17.70;100.00;101082.22;2612267;31;19954;-61
2022/06/30 02:27:52;;;;;;;;;;;;;;;17.67;100.00;101090.72;2613172;36;20006;-56
2022/06/30 02:30:24;;;;;;;;;;;;;;;17.66;100.00;101083.59;2611795;36;19954;-58
2022/06/30 02:32:52;;;;;;;;;;;;;;;17.62;100.00;101090.41;2612840;36;19974;-58
2022/06/30 02:35:20;;;;;;;;;;;;;;;17.63;100.00;101076.63;2612081;31;19957;-57
2022/06/30 02:37:48;;;;;;;;;;;;;;;17.56;100.00;101082.94;2611979;36;19953;-58
2022/06/30 02:40:16;;;;;;;;;;;;;;;17.57;100.00;101082.78;2611127;36;19950;-58
2022/06/30 02:42:44;;;;;;;;;;;;;;;17.61;100.00;101088.72;2612548;36;20052;-58
2022/06/30 02:45:12;;;;;;;;;;;;;;;17.61;100.00;101081.41;2612255;36;19939;-60
2022/06/30 02:47:44;;;;;;;;;;;;;;;17.57;100.00;101081.94;2613243;36;20372;-58
2022/06/30 02:50:13;;;;;;;;;;;;;;;17.48;100.00;101087.41;2612899;31;19958;-56
2022/06/30 02:52:42;;;;;;;;;;;;;;;17.42;100.00;101090.00;2612944;36;19954;-58
2022/06/30 02:55:10;;;;;;;;;;;;;;;17.31;100.00;101091.19;2612173;36;19947;-56
2022/06/30 02:57:39;;;;;;;;;;;;;;;17.25;100.00;101089.19;2611805;36;19954;-58
2022/06/30 03:00:08;;;;;;;;;;;;;;;17.14;100.00;101088.53;2613224;36;19946;-57
2022/06/30 03:02:36;;;;;;;;;;;;;;;17.07;100.00;101082.06;2613227;36;19958;-58
2022/06/30 03:05:07;;;;;;;;;;;;;;;17.03;100.00;101082.59;2612745;36;19950;-58
2022/06/30 03:07:36;;;;;;;;;;;;;;;17.07;100.00;101081.25;2612980;31;19946;-57
2022/06/30 03:10:04;;;;;;;;;;;;;;;17.03;100.00;101086.16;2613116;36;20437;-60
2022/06/30 03:12:39;;;;;;;;;;;;;;;17.03;100.00;101078.00;2614099;36;19957;-58
2022/06/30 03:15:08;;;;;;;;;;;;;;;17.09;100.00;101080.06;2611500;36;20813;-58
2022/06/30 03:17:37;;;;;;;;;;;;;;;17.04;100.00;101079.72;2612206;36;19972;-60
2022/06/30 03:20:08;;;;;;;;;;;;;;;17.05;100.00;101073.25;2611837;36;20152;-57
2022/06/30 03:22:36;;;;;;;;;;;;;;;17.08;100.00;101078.34;2606931;36;19958;-57
2022/06/30 03:25:04;;;;;;;;;;;;;;;17.07;100.00;101068.47;2612983;36;19954;-58
2022/06/30 03:27:32;;;;;;;;;;;;;;;17.05;100.00;101069.66;2614768;36;20502;-58
2022/06/30 03:30:00;;;;;;;;;;;;;;;17.06;100.00;101072.22;2613151;36;19973;-57
2022/06/30 03:32:28;;;;;;;;;;;;;;;17.11;100.00;101071.72;2614541;31;19955;-58
2022/06/30 03:34:56;;;;;;;;;;;;;;;17.16;100.00;101069.31;2613814;36;20372;-57
2022/06/30 03:37:27;;;;;;;;;;;;;;;17.22;100.00;101073.22;2612706;36;19969;-58
2022/06/30 03:39:55;;;;;;;;;;;;;;;17.27;100.00;101063.50;2613352;36;19950;-55
2022/06/30 03:42:23;;;;;;;;;;;;;;;17.25;100.00;101068.25;2612656;36;20909;-53
2022/06/30 03:44:52;;;;;;;;;;;;;;;17.30;100.00;101065.03;2611496;36;19954;-58
2022/06/30 03:47:20;;;;;;;;;;;;;;;17.26;100.00;101055.53;2612245;36;19950;-57
2022/06/30 03:49:48;;;;;;;;;;;;;;;17.31;100.00;101055.81;2612402;36;20436;-57
2022/06/30 03:52:16;;;;;;;;;;;;;;;17.31;100.00;101053.97;2612644;31;19939;-57
2022/06/30 03:54:47;;;;;;;;;;;;;;;17.36;100.00;101055.28;2612296;31;20424;-57
2022/06/30 03:57:15;;;;;;;;;;;;;;;17.31;100.00;101055.81;2611802;36;20452;-57
2022/06/30 03:59:43;;;;;;;;;;;;;;;17.36;100.00;101060.75;2611724;36;19954;-59
2022/06/30 04:02:11;;;;;;;;;;;;;;;17.38;100.00;101062.25;2612789;36;19947;-57
2022/06/30 04:04:39;;;;;;;;;;;;;;;17.41;100.00;101056.47;2612242;36;20100;-58
2022/06/30 04:07:08;;;;;;;;;;;;;;;17.52;100.00;101057.97;2612320;36;19954;-58
2022/06/30 04:09:36;;;;;;;;;;;;;;;17.61;100.00;101056.91;2612081;36;19953;-58
2022/06/30 04:12:07;;;;;;;;;;;;;;;17.50;100.00;101055.44;2612059;31;19955;-53
2022/06/30 04:14:35;;;;;;;;;;;;;;;17.57;100.00;101052.00;2611799;36;19985;-56
2022/06/30 04:17:05;;;;;;;;;;;;;;;17.60;100.00;101054.34;2612393;36;19971;-59
2022/06/30 04:19:33;;;;;;;;;;;;;;;17.81;100.00;101053.72;2610129;36;19974;-58
2022/06/30 04:22:01;;;;;;;;;;;;;;;17.90;100.00;101049.94;2613797;36;19947;-57
2022/06/30 04:24:29;;;;;;;;;;;;;;;17.89;100.00;101037.34;2613334;31;20003;-58
2022/06/30 04:26:58;;;;;;;;;;;;;;;17.82;100.00;101037.22;2611139;36;19950;-59
2022/06/30 04:29:28;;;;;;;;;;;;;;;17.84;100.00;101035.16;2611855;36;20333;-59
2022/06/30 04:34:37;;;;;;;;;;;;;;;18.10;100.00;101039.44;2611857;31;20401;-57
2022/06/30 04:37:05;;;;;;;;;;;;;;;18.17;100.00;101037.69;2612246;36;20424;-57
2022/06/30 04:39:33;;;;;;;;;;;;;;;18.31;100.00;101048.81;2610501;31;19947;-56
2022/06/30 04:41:59;;;;;;;;;;;;;;;18.34;100.00;101051.19;2607564;36;19966;-59
2022/06/30 04:44:29;;;;;;;;;;;;;;;18.32;100.00;101050.53;2605639;36;19950;-57
2022/06/30 04:46:58;;;;;;;;;;;;;;;18.54;100.00;101060.53;2608543;36;19950;-56
2022/06/30 04:49:26;;;;;;;;;;;;;;;18.56;100.00;101050.31;2611958;31;20343;-57
2022/06/30 04:51:54;;;;;;;;;;;;;;;18.69;100.00;101051.56;2611463;36;20565;-54
2022/06/30 04:54:22;;;;;;;;;;;;;;;18.89;100.00;101058.22;2610274;36;19981;-57
2022/06/30 04:56:50;;;;;;;;;;;;;;;18.66;100.00;101049.22;2611038;36;20507;-59
2022/06/30 04:59:18;;;;;;;;;;;;;;;18.58;100.00;101041.97;2613118;31;19969;-54
2022/06/30 05:01:49;;;;;;;;;;;;;;;18.71;100.00;101041.31;2611112;36;20474;-57
2022/06/30 05:04:17;;;;;;;;;;;;;;;18.88;100.00;101040.16;2611674;31;19955;-58
2022/06/30 05:06:45;;;;;;;;;;;;;;;19.03;100.00;101040.16;2611729;36;20372;-58
2022/06/30 05:09:13;;;;;;;;;;;;;;;19.05;100.00;101038.09;2612752;36;19946;-56
2022/06/30 05:11:41;;;;;;;;;;;;;;;19.16;100.00;101044.97;2613806;36;20367;-55
2022/06/30 05:14:09;;;;;;;;;;;;;;;19.45;100.00;101037.81;2611756;36;19957;-57
2022/06/30 05:16:37;;;;;;;;;;;;;;;19.21;100.00;101028.88;2612229;36;19954;-58
2022/06/30 05:19:08;;;;;;;;;;;;;;;19.34;100.00;101030.91;2612896;36;20451;-56
2022/06/30 05:21:36;;;;;;;;;;;;;;;19.30;100.00;101028.75;2613587;36;19954;-57
2022/06/30 05:26:45;;;;;;;;;;;;;;;19.39;100.00;101030.34;2611481;36;19962;-57
2022/06/30 05:29:13;;;;;;;;;;;;;;;19.40;100.00;101026.59;2612558;36;19950;-58
2022/06/30 05:31:41;;;;;;;;;;;;;;;19.49;100.00;101027.34;2612732;36;20032;-58
2022/06/30 05:34:12;;;;;;;;;;;;;;;19.50;100.00;101035.34;2611207;36;19953;-54
2022/06/30 05:36:40;;;;;;;;;;;;;;;19.57;100.00;101028.06;2614136;36;19958;-57
2022/06/30 05:39:08;;;;;;;;;;;;;;;19.56;100.00;101026.38;2609691;36;19977;-57
2022/06/30 05:41:37;;;;;;;;;;;;;;;19.77;100.00;101021.97;2609150;36;20005;-57
2022/06/30 05:44:05;;;;;;;;;;;;;;;19.95;100.00;101027.06;2609129;36;20006;-57
2022/06/30 05:46:33;;;;;;;;;;;;;;;20.18;100.00;101021.38;2606719;36;19966;-56
2022/06/30 05:49:01;;;;;;;;;;;;;;;20.31;100.00;101032.44;2610293;36;19974;-58
2022/06/30 05:51:32;;;;;;;;;;;;;;;20.24;100.00;101026.09;2611824;36;19951;-56
2022/06/30 05:54:00;;;;;;;;;;;;;;;20.17;100.00;101030.66;2611131;36;19947;-58
2022/06/30 05:56:28;;;;;;;;;;;;;;;20.13;100.00;101026.63;2609283;36;19953;-57
2022/06/30 05:58:56;;;;;;;;;;;;;;;20.33;100.00;101039.63;2611436;36;20665;-58
2022/06/30 06:01:24;;;;;;;;;;;;;;;20.39;100.00;101036.09;2610911;36;20339;-56
2022/06/30 06:03:53;;;;;;;;;;;;;;;20.53;100.00;101029.69;2610350;36;19959;-56
2022/06/30 06:06:21;;;;;;;;;;;;;;;20.60;100.00;101038.81;2610480;36;19946;-58
2022/06/30 06:08:52;;;;;;;;;;;;;;;20.77;100.00;101031.19;2610875;36;19951;-58
2022/06/30 06:11:20;;;;;;;;;;;;;;;20.81;100.00;101037.09;2610666;36;19942;-56
2022/06/30 06:13:48;;;;;;;;;;;;;;;20.92;100.00;101061.19;2612347;36;19977;-58
2022/06/30 06:16:16;;;;;;;;;;;;;;;21.10;100.00;101029.72;2612342;36;20311;-56
2022/06/30 06:18:44;;;;;;;;;;;;;;;21.17;100.00;101030.56;2611564;36;19950;-57
2022/06/30 06:21:13;;;;;;;;;;;;;;;21.49;100.00;101022.72;2612848;36;19974;-54
2022/06/30 06:23:41;;;;;;;;;;;;;;;21.68;100.00;101040.31;2612224;36;20356;-53
2022/06/30 06:26:12;;;;;;;;;;;;;;;21.67;100.00;101031.28;2612827;31;20404;-56
2022/06/30 06:31:21;;;;;;;;;;;;;;;21.52;100.00;101030.56;2612126;36;19950;-57
2022/06/30 06:33:49;;;;;;;;;;;;;;;22.16;100.00;101042.16;2611178;36;19954;-60
2022/06/30 06:36:17;;;;;;;;;;;;;;;21.90;100.00;101038.28;2611438;36;20441;-58
2022/06/30 06:38:45;;;;;;;;;;;;;;;21.86;100.00;101047.97;2611147;36;19974;-57
2022/06/30 06:41:16;;;;;;;;;;;;;;;21.78;100.00;101048.16;2612368;36;19951;-57
2022/06/30 06:43:47;;;;;;;;;;;;;;;21.99;100.00;101039.75;2614938;54;19947;-55
2022/06/30 06:46:15;;;;;;;;;;;;;;;22.15;100.00;101033.06;2610883;31;19985;-57
2022/06/30 06:48:44;;;;;;;;;;;;;;;22.10;100.00;101034.72;2609746;36;19977;-58
2022/06/30 06:51:12;;;;;;;;;;;;;;;22.04;100.00;101031.78;2611889;36;19958;-57
2022/06/30 06:53:40;;;;;;;;;;;;;;;22.35;100.00;101030.38;2612312;36;19973;-57
2022/06/30 06:56:08;;;;;;;;;;;;;;;22.20;100.00;101037.91;2611505;31;19955;-59
2022/06/30 06:58:39;;;;;;;;;;;;;;;22.32;100.00;101044.50;2612518;31;20042;-58
2022/06/30 07:01:07;;;;;;;;;;;;;;;22.86;100.00;101039.00;2584387;36;19947;-58
2022/06/30 07:03:35;;;;;;;;;;;;;;;23.03;100.00;101045.72;2601036;36;19946;-57
2022/06/30 07:06:03;;;;;;;;;;;;;;;22.93;100.00;101040.66;2608118;36;21328;-57
2022/06/30 07:08:31;;;;;;;;;;;;;;;22.91;100.00;101041.97;2609657;36;19957;-57
2022/06/30 07:11:00;;;;;;;;;;;;;;;22.96;100.00;101050.38;2608701;36;19955;-56
2022/06/30 07:13:28;;;;;;;;;;;;;;;23.33;100.00;101063.63;2610230;36;19965;-57
2022/06/30 07:15:59;;;;;;;;;;;;;;;23.38;100.00;101056.44;2611305;36;20285;-58
2022/06/30 07:18:27;;;;;;;;;;;;;;;23.38;100.00;101067.44;2610228;36;20432;-58
2022/06/30 07:20:55;;;;;;;;;;;;;;;23.44;100.00;101063.81;2612453;36;19953;-58
2022/06/30 07:23:23;;;;;;;;;;;;;;;23.67;100.00;101075.34;2611786;36;19950;-59
2022/06/30 07:25:51;;;;;;;;;;;;;;;24.00;100.00;101077.09;2608301;36;19951;-57
2022/06/30 07:28:19;;;;;;;;;;;;;;;23.32;100.00;101079.28;2611713;36;20410;-59
2022/06/30 07:30:48;;;;;;;;;;;;;;;23.44;100.00;101084.94;2610878;36;20379;-57
2022/06/30 07:33:18;;;;;;;;;;;;;;;23.73;100.00;101086.31;2612180;36;20453;-58
2022/06/30 07:35:46;;;;;;;;;;;;;;;23.96;100.00;101096.81;2610022;36;19951;-58
2022/06/30 07:38:15;;;;;;;;;;;;;;;23.69;100.00;101097.94;2608323;36;20364;-56
2022/06/30 07:40:43;;;;;;;;;;;;;;;23.74;100.00;101111.91;2612193;36;19950;-59
2022/06/30 07:43:11;;;;;;;;;;;;;;;23.80;100.00;101111.00;2608827;36;19950;-57
2022/06/30 07:45:39;;;;;;;;;;;;;;;24.04;100.00;101108.59;2611458;36;20709;-57
2022/06/30 07:48:07;;;;;;;;;;;;;;;24.36;100.00;101114.13;2609409;36;19946;-57
2022/06/30 07:50:38;;;;;;;;;;;;;;;24.20;100.00;101110.00;2609712;31;19954;-58
2022/06/30 07:53:06;;;;;;;;;;;;;;;23.85;100.00;101111.22;2608814;36;19946;-57
2022/06/30 07:55:34;;;;;;;;;;;;;;;23.68;100.00;101108.09;2610480;36;19954;-57
2022/06/30 07:58:02;;;;;;;;;;;;;;;23.67;100.00;101114.66;2608737;31;19981;-59
2022/06/30 08:00:30;;;;;;;;;;;;;;;24.07;100.00;101111.78;2612726;36;20364;-56
2022/06/30 08:02:58;;;;;;;;;;;;;;;23.95;100.00;101128.13;2613341;36;19978;-56
2022/06/30 08:05:27;;;;;;;;;;;;;;;23.94;100.00;101120.94;2611229;36;19954;-55
2022/06/30 08:07:58;;;;;;;;;;;;;;;24.05;100.00;101121.31;2610672;36;19950;-56
2022/06/30 08:10:26;;;;;;;;;;;;;;;24.17;100.00;101130.53;2610820;36;19953;-57
2022/06/30 08:12:54;;;;;;;;;;;;;;;24.26;100.00;101131.97;2610531;36;19954;-56
2022/06/30 08:15:23;;;;;;;;;;;;;;;23.82;100.00;101141.88;2608287;36;19973;-62
2022/06/30 08:17:52;;;;;;;;;;;;;;;24.19;100.00;101130.31;2609131;36;19953;-56
2022/06/30 08:20:20;;;;;;;;;;;;;;;24.43;100.00;101128.69;2609620;31;19951;-57
2022/06/30 08:22:48;;;;;;;;;;;;;;;24.38;100.00;101134.00;2610710;36;20734;-53
2022/06/30 08:25:19;;;;;;;;;;;;;;;24.47;100.00;101133.53;2610269;36;19962;-58
2022/06/30 08:27:47;;;;;;;;;;;;;;;24.51;100.00;101144.09;2612169;36;19970;-57
2022/06/30 08:30:15;;;;;;;;;;;;;;;24.94;100.00;101154.38;2608033;36;19958;-53
2022/06/30 08:32:43;;;;;;;;;;;;;;;24.67;100.00;101149.09;2611468;36;19962;-59
2022/06/30 08:35:11;;;;;;;;;;;;;;;24.60;100.00;101142.78;2606258;36;19957;-56
2022/06/30 08:37:39;;;;;;;;;;;;;;;24.68;100.00;101145.28;2602418;36;20329;-55
2022/06/30 08:42:51;;;;;;;;;;;;;;;24.08;100.00;101148.34;2606466;36;19951;-57
2022/06/30 08:45:20;;;;;;;;;;;;;;;24.56;100.00;101147.88;2607949;36;20355;-58
2022/06/30 08:47:49;;;;;;;;;;;;;;;24.52;100.00;101145.78;2608422;36;20046;-59
2022/06/30 08:50:18;;;;;;;;;;;;;;;24.63;100.00;101153.34;2608138;36;19974;-57
2022/06/30 08:52:48;;;;;;;;;;;;;;;25.32;100.00;101147.91;2607177;36;19947;-59
2022/06/30 08:55:17;;;;;;;;;;;;;;;25.20;100.00;101150.53;2607621;36;19961;-56
2022/06/30 08:57:46;;;;;;;;;;;;;;;24.88;100.00;101149.78;2608956;36;19955;-58
2022/06/30 09:00:18;;;;;;;;;;;;;;;25.08;100.00;101147.69;2609726;36;19958;-56
2022/06/30 09:02:46;;;;;;;;;;;;;;;25.43;100.00;101147.19;2608825;36;19981;-56
2022/06/30 09:05:15;;;;;;;;;;;;;;;25.06;100.00;101148.97;2608097;36;19951;-58
2022/06/30 09:07:43;;;;;;;;;;;;;;;25.40;100.00;101153.16;2606686;36;20004;-58
2022/06/30 09:10:11;;;;;;;;;;;;;;;25.51;100.00;101151.53;2608109;36;20438;-56
2022/06/30 09:12:41;;;;;;;;;;;;;;;25.30;100.00;101148.16;2608062;36;19958;-58
2022/06/30 09:15:10;;;;;;;;;;;;;;;25.40;100.00;101144.88;2608714;36;21056;-59
2022/06/30 09:17:49;;;;;;;;;;;;;;;25.29;100.00;101143.66;2610915;36;20034;-57
2022/06/30 09:20:17;;;;;;;;;;;;;;;25.51;100.00;101148.78;2611742;36;19974;-57
2022/06/30 09:22:45;;;;;;;;;;;;;;;25.72;100.00;101139.19;2608698;36;19970;-59
2022/06/30 09:25:15;;;;;;;;;;;;;;;25.56;100.00;101146.19;2611264;36;19977;-58
2022/06/30 09:27:47;;;;;;;;;;;;;;;25.82;100.00;101145.00;2612123;36;20041;-57
2022/06/30 09:30:16;;;;;;;;;;;;;;;26.19;100.00;101145.03;2608658;31;19957;-57
2022/06/30 09:32:52;;;;;;;;;;;;;;;26.37;100.00;101140.53;2607965;36;19947;-54
2022/06/30 09:35:22;;;;;;;;;;;;;;;26.42;100.00;101156.38;2607904;31;19958;-57
2022/06/30 09:37:59;;;;;;;;;;;;;;;25.63;100.00;101152.47;2599912;36;20038;-58
2022/06/30 09:40:31;;;;;;;;;;;;;;;25.81;100.00;101161.78;2603327;36;19958;-59
2022/06/30 09:42:59;;;;;;;;;;;;;;;26.25;100.00;101151.53;2605971;36;19951;-57
2022/06/30 09:45:35;;;;;;;;;;;;;;;25.95;100.00;101159.72;2608352;36;19954;-60
2022/06/30 09:48:06;;;;;;;;;;;;;;;25.96;100.00;101153.16;2609452;31;20475;-55
2022/06/30 09:50:34;;;;;;;;;;;;;;;26.49;100.00;101144.16;2607073;36;19946;-57
2022/06/30 09:53:06;;;;;;;;;;;;;;;26.29;100.00;101146.38;2610034;36;19947;-58
2022/06/30 09:55:39;;;;;;;;;;;;;;;26.48;100.00;101147.97;2609926;36;19950;-57
2022/06/30 09:58:07;;;;;;;;;;;;;;;26.31;100.00;101155.25;2607306;36;19985;-60
2022/06/30 10:00:44;;;;;;;;;;;;;;;26.62;100.00;101158.81;2609177;36;19997;-57
2022/06/30 10:03:16;;;;;;;;;;;;;;;26.43;100.00;101156.16;2608352;31;20407;-57
2022/06/30 10:05:45;;;;;;;;;;;;;;;26.32;100.00;101151.41;2609788;36;20046;-58
2022/06/30 10:08:14;;;;;;;;;;;;;;;26.28;100.00;101164.00;2608054;36;19969;-57
2022/06/30 10:10:43;;;;;;;;;;;;;;;25.62;100.00;101169.25;2609904;36;19962;-59
2022/06/30 10:13:15;;;;;;;;;;;;;;;25.43;100.00;101169.22;2607522;36;20421;-57
2022/06/30 10:15:43;;;;;;;;;;;;;;;25.51;100.00;101155.16;2608742;36;19958;-57
2022/06/30 10:18:11;;;;;;;;;;;;;;;25.43;100.00;101160.94;2606616;36;20566;-59
2022/06/30 10:20:43;;;;;;;;;;;;;;;26.05;100.00;101157.31;2608535;36;20360;-58
2022/06/30 10:23:13;;;;;;;;;;;;;;;26.26;100.00;101161.47;2607045;36;20067;-57
2022/06/30 10:25:42;;;;;;;;;;;;;;;26.74;100.00;101155.06;2608308;36;20530;-58
2022/06/30 10:28:11;;;;;;;;;;;;;;;26.74;100.00;101170.78;2609895;36;20360;-57
2022/06/30 10:30:46;;;;;;;;;;;;;;;26.62;100.00;101164.34;2608080;36;19955;-58
2022/06/30 10:33:17;;;;;;;;;;;;;;;26.34;100.00;101171.31;2607530;36;20363;-58
2022/06/30 10:35:49;;;;;;;;;;;;;;;26.90;100.00;101161.81;2610325;36;19946;-57
2022/06/30 10:38:23;;;;;;;;;;;;;;;26.10;100.00;101168.47;2610135;31;19950;-59
2022/06/30 10:40:57;;;;;;;;;;;;;;;25.87;100.00;101170.00;2599329;36;19950;-60
2022/06/30 10:43:25;;;;;;;;;;;;;;;26.42;100.00;101165.50;2602876;36;20424;-57
2022/06/30 10:45:58;;;;;;;;;;;;;;;26.08;100.00;101170.63;2608455;36;20443;-58
2022/06/30 10:48:27;;;;;;;;;;;;;;;26.25;100.00;101169.97;2608571;36;20351;-58
2022/06/30 10:50:58;;;;;;;;;;;;;;;26.81;100.00;101174.28;2609561;36;19959;-58
2022/06/30 10:53:41;;;;;;;;;;;;;;;26.13;100.00;101176.28;2610059;36;19951;-57
2022/06/30 10:56:10;;;;;;;;;;;;;;;26.80;100.00;101172.59;2607469;36;19958;-59
2022/06/30 10:58:38;;;;;;;;;;;;;;;27.36;100.00;101173.16;2610786;36;20310;-58
2022/06/30 11:01:07;;;;;;;;;;;;;;;27.32;100.00;101179.38;2609267;36;19989;-58
2022/06/30 11:04:02;;;;;;;;;;;;;;;26.69;100.00;101171.50;2611357;36;20023;-57
2022/06/30 11:06:45;;;;;;;;;;;;;;;26.77;100.00;101167.53;2612503;36;19973;-59
2022/06/30 11:09:15;;;;;;;;;;;;;;;26.61;100.00;101174.56;2612938;31;19964;-58
2022/06/30 11:11:43;;;;;;;;;;;;;;;26.91;100.00;101174.53;2612795;36;19946;-58
2022/06/30 11:14:28;;;;;;;;;;;;;;;27.15;100.00;101169.03;2608989;36;20448;-58
2022/06/30 11:16:56;;;;;;;;;;;;;;;26.70;100.00;101177.84;2608924;36;19951;-58
2022/06/30 11:19:32;;;;;;;;;;;;;;;27.03;100.00;101173.69;2608737;36;19993;-58
2022/06/30 11:22:01;;;;;;;;;;;;;;;27.00;100.00;101165.88;2611880;36;20312;-60
2022/06/30 11:24:33;;;;;;;;;;;;;;;27.22;100.00;101169.78;2608074;31;19958;-58
2022/06/30 11:29:42;;;;;;;;;;;;;;;25.97;100.00;101163.09;2607728;36;20503;-58
2022/06/30 11:32:10;;;;;;;;;;;;;;;26.82;100.00;101164.06;2607695;31;19946;-59
2022/06/30 11:34:40;;;;;;;;;;;;;;;26.63;100.00;101166.03;2608354;36;19951;-58
2022/06/30 11:37:08;;;;;;;;;;;;;;;27.16;100.00;101161.59;2608469;36;19950;-58
2022/06/30 11:39:39;;;;;;;;;;;;;;;27.43;100.00;101164.75;2606148;36;19950;-58
2022/06/30 11:42:11;;;;;;;;;;;;;;;27.45;100.00;101160.63;2602543;36;19985;-60
2022/06/30 11:44:40;;;;;;;;;;;;;;;26.83;100.00;101161.06;2608887;36;19966;-57
2022/06/30 11:47:10;;;;;;;;;;;;;;;27.13;100.00;101154.59;2607116;36;19950;-59
2022/06/30 11:49:42;;;;;;;;;;;;;;;27.34;100.00;101161.50;2606079;36;19958;-56
2022/06/30 11:52:15;;;;;;;;;;;;;;;27.40;100.00;101156.91;2600830;31;19947;-57
2022/06/30 11:54:48;;;;;;;;;;;;;;;26.74;100.00;101156.97;2609177;36;19961;-59
2022/06/30 11:57:17;;;;;;;;;;;;;;;26.87;100.00;101156.75;2608017;36;20511;-57
2022/06/30 11:59:46;;;;;;;;;;;;;;;26.71;100.00;101152.75;2607116;36;19950;-58
2022/06/30 12:02:14;;;;;;;;;;;;;;;27.41;100.00;101151.19;2608754;36;19975;-59
2022/06/30 12:04:44;;;;;;;;;;;;;;;27.76;96.59;101154.94;2609123;36;20408;-57
2022/06/30 12:07:14;;;;;;;;;;;;;;;27.67;96.76;101156.44;2610235;36;19946;-57
2022/06/30 12:09:42;;;;;;;;;;;;;;;27.52;98.51;101152.22;2609507;36;20388;-57
2022/06/30 12:12:14;;;;;;;;;;;;;;;27.54;100.00;101149.22;2608383;36;20444;-60
2022/06/30 12:14:42;;;;;;;;;;;;;;;27.49;100.00;101147.19;2608763;36;19978;-61
2022/06/30 12:17:12;;;;;;;;;;;;;;;27.73;100.00;101147.16;2606853;36;19977;-59
2022/06/30 12:19:41;;;;;;;;;;;;;;;28.02;100.00;101153.59;2608217;36;20641;-57
2022/06/30 12:22:10;;;;;;;;;;;;;;;28.22;91.96;101155.91;2607368;36;19974;-59
2022/06/30 12:24:38;;;;;;;;;;;;;;;28.45;88.73;101149.44;2608172;36;19953;-60
2022/06/30 12:27:07;;;;;;;;;;;;;;;28.02;97.00;101133.38;2608061;36;19954;-58
2022/06/30 12:29:38;;;;;;;;;;;;;;;28.20;99.90;101137.88;2608824;36;19951;-60
2022/06/30 12:32:09;;;;;;;;;;;;;;;27.36;93.25;101136.38;2608662;36;19997;-58
2022/06/30 12:34:50;;;;;;;;;;;;;;;27.26;100.00;101136.97;2609148;36;19958;-58
2022/06/30 12:37:18;;;;;;;;;;;;;;;26.58;100.00;101134.44;2608665;36;19954;-58
2022/06/30 12:39:47;;;;;;;;;;;;;;;26.17;100.00;101125.06;2607407;36;20441;-57
2022/06/30 12:42:15;;;;;;;;;;;;;;;25.72;100.00;101136.44;2611007;36;20218;-56
2022/06/30 12:44:46;;;;;;;;;;;;;;;26.15;100.00;101137.44;2607566;36;19954;-59
2022/06/30 12:47:17;;;;;;;;;;;;;;;26.07;100.00;101135.00;2608983;36;19989;-57
2022/06/30 12:49:45;;;;;;;;;;;;;;;25.99;100.00;101122.34;2609087;36;20600;-59
2022/06/30 12:52:15;;;;;;;;;;;;;;;26.49;100.00;101119.31;2601640;31;20436;-59
2022/06/30 12:54:52;;;;;;;;;;;;;;;25.66;100.00;101118.94;2609486;36;19946;-57